Time;durP1;ratioP1;P1;durP2;ratioP2;P2;SDS_P1;SDS_P2;PMS_P1;PMS_P2;Temp;Humidity;BMP_temperature;BMP_pressure;BME280_temperature;BME280_humidity;BME280_pressure;Samples;Min_cycle;Max_cycle;Signal;HPM_P1;HPM_P2
2022/08/02 00:00:15;;;;;;;;;;;19.90;99.90;;;;;;5158028;27;19903;-75
2022/08/02 00:02:41;;;;;;;;;;;19.90;99.90;;;;;;5159124;27;19907;-75
2022/08/02 00:05:07;;;;;;;;;;;19.90;99.90;;;;;;5157941;27;19961;-75
2022/08/02 00:07:33;;;;;;;;;;;19.90;99.90;;;;;;5140096;27;19911;-75
2022/08/02 00:09:59;;;;;;;;;;;19.90;99.90;;;;;;5138875;27;19964;-74
2022/08/02 00:12:24;;;;;;;;;;;19.90;99.90;;;;;;5157709;27;20347;-74
2022/08/02 00:14:50;;;;;;;;;;;20.00;99.90;;;;;;5157029;27;19904;-74
2022/08/02 00:17:16;;;;;;;;;;;20.00;99.90;;;;;;5156765;27;20407;-75
2022/08/02 00:19:41;;;;;;;;;;;20.00;99.90;;;;;;5157068;27;19903;-75
2022/08/02 00:22:07;;;;;;;;;;;20.00;99.90;;;;;;5156533;27;19914;-75
2022/08/02 00:24:32;;;;;;;;;;;20.00;99.90;;;;;;5156853;27;20348;-74
2022/08/02 00:26:58;;;;;;;;;;;20.00;99.90;;;;;;5156990;27;20014;-74
2022/08/02 00:29:24;;;;;;;;;;;19.90;99.90;;;;;;5156272;27;20326;-75
2022/08/02 00:31:49;;;;;;;;;;;20.00;99.90;;;;;;5156719;27;20378;-74
2022/08/02 00:34:15;;;;;;;;;;;19.90;99.90;;;;;;5137661;27;19903;-75
2022/08/02 00:36:40;;;;;;;;;;;19.90;99.90;;;;;;5156668;27;19924;-75
2022/08/02 00:39:06;;;;;;;;;;;19.90;99.90;;;;;;5156176;27;20095;-75
2022/08/02 00:41:32;;;;;;;;;;;20.00;99.90;;;;;;5137911;27;19959;-75
2022/08/02 00:43:57;;;;;;;;;;;19.90;99.90;;;;;;5156664;27;20414;-75
2022/08/02 00:46:23;;;;;;;;;;;19.90;99.90;;;;;;5156278;27;19959;-75
2022/08/02 00:48:48;;;;;;;;;;;19.90;99.90;;;;;;5156480;27;20005;-74
2022/08/02 00:51:14;;;;;;;;;;;19.90;99.90;;;;;;5155951;27;19903;-74
2022/08/02 00:53:40;;;;;;;;;;;19.90;99.90;;;;;;5156540;27;19903;-75
2022/08/02 00:56:06;;;;;;;;;;;19.90;99.90;;;;;;5155682;27;19903;-75
2022/08/02 00:58:31;;;;;;;;;;;19.90;99.90;;;;;;5155974;27;19903;-74
2022/08/02 01:00:59;;;;;;;;;;;19.90;99.90;;;;;;5155286;27;19903;-75
2022/08/02 01:03:25;;;;;;;;;;;19.90;99.90;;;;;;5155581;27;19903;-74
2022/08/02 01:05:51;;;;;;;;;;;19.90;99.90;;;;;;5156599;27;19934;-74
2022/08/02 01:08:16;;;;;;;;;;;19.90;99.90;;;;;;5155593;27;20327;-74
2022/08/02 01:10:42;;;;;;;;;;;19.90;99.90;;;;;;5156559;27;19929;-74
2022/08/02 01:13:08;;;;;;;;;;;19.90;99.90;;;;;;5155482;27;19909;-74
2022/08/02 01:15:39;;;;;;;;;;;19.90;99.90;;;;;;5156085;27;19990;-74
2022/08/02 01:18:08;;;;;;;;;;;19.90;99.90;;;;;;5154950;27;19956;-74
2022/08/02 01:20:46;;;;;;;;;;;19.80;99.90;;;;;;5155970;27;19952;-74
2022/08/02 01:23:34;;;;;;;;;;;19.80;99.90;;;;;;5155320;27;19903;-75
2022/08/02 01:25:59;;;;;;;;;;;19.80;99.90;;;;;;5155835;27;19907;-74
2022/08/02 01:28:45;;;;;;;;;;;19.80;99.90;;;;;;5155035;27;19907;-74
2022/08/02 01:31:11;;;;;;;;;;;19.80;99.90;;;;;;5154906;27;20319;-75
2022/08/02 01:33:54;;;;;;;;;;;19.90;99.90;;;;;;5155412;27;19945;-75
2022/08/02 01:36:20;;;;;;;;;;;19.90;99.90;;;;;;5154879;27;19903;-74
2022/08/02 01:38:47;;;;;;;;;;;19.90;99.90;;;;;;5155442;27;19925;-74
2022/08/02 01:41:21;;;;;;;;;;;19.90;99.90;;;;;;5154522;27;19960;-75
2022/08/02 01:43:48;;;;;;;;;;;19.90;99.90;;;;;;5155423;27;19918;-74
2022/08/02 01:46:15;;;;;;;;;;;19.90;99.90;;;;;;5155175;27;19929;-74
2022/08/02 01:48:41;;;;;;;;;;;19.90;99.90;;;;;;5154789;27;19932;-74
2022/08/02 01:51:07;;;;;;;;;;;19.90;99.90;;;;;;5154681;27;19907;-74
2022/08/02 01:53:34;;;;;;;;;;;19.90;99.90;;;;;;5136820;27;19910;-74
2022/08/02 01:56:00;;;;;;;;;;;19.90;99.90;;;;;;5154853;27;20389;-74
2022/08/02 01:58:28;;;;;;;;;;;19.90;99.90;;;;;;5154820;27;19903;-74
2022/08/02 02:00:55;;;;;;;;;;;19.90;99.90;;;;;;5155140;27;19948;-74
2022/08/02 02:03:21;;;;;;;;;;;19.90;99.90;;;;;;5154521;27;19903;-74
2022/08/02 02:05:48;;;;;;;;;;;19.90;99.90;;;;;;5154950;27;19955;-74
2022/08/02 02:08:16;;;;;;;;;;;19.90;99.90;;;;;;5154219;27;20292;-75
2022/08/02 02:10:44;;;;;;;;;;;19.90;99.90;;;;;;5154697;27;19903;-74
2022/08/02 02:13:15;;;;;;;;;;;19.90;99.90;;;;;;5154287;27;19910;-75
2022/08/02 02:15:43;;;;;;;;;;;19.90;99.90;;;;;;5136350;27;19903;-74
2022/08/02 02:18:09;;;;;;;;;;;19.80;99.90;;;;;;5154359;27;19987;-74
2022/08/02 02:20:35;;;;;;;;;;;19.80;99.90;;;;;;5154929;27;19956;-75
2022/08/02 02:23:01;;;;;;;;;;;19.80;99.90;;;;;;5154395;27;20270;-74
2022/08/02 02:25:26;;;;;;;;;;;19.80;99.90;;;;;;5153905;27;19958;-74
2022/08/02 02:28:03;;;;;;;;;;;19.80;99.90;;;;;;5154479;27;19911;-74
2022/08/02 02:30:30;;;;;;;;;;;19.80;99.90;;;;;;5154257;27;19959;-74
2022/08/02 02:32:57;;;;;;;;;;;19.80;99.90;;;;;;5154150;27;19903;-74
2022/08/02 02:35:23;;;;;;;;;;;19.80;99.90;;;;;;5154109;27;19926;-74
2022/08/02 02:37:50;;;;;;;;;;;19.80;99.90;;;;;;5155097;27;19903;-74
2022/08/02 02:40:16;;;;;;;;;;;19.70;99.90;;;;;;5153987;27;20023;-74
2022/08/02 02:42:42;;;;;;;;;;;19.80;99.90;;;;;;5154375;27;20437;-74
2022/08/02 02:45:09;;;;;;;;;;;19.80;99.90;;;;;;5154365;27;19907;-74
2022/08/02 02:47:36;;;;;;;;;;;19.70;99.90;;;;;;5154921;27;19914;-74
2022/08/02 02:50:02;;;;;;;;;;;19.70;99.90;;;;;;5154940;27;20350;-74
2022/08/02 02:52:28;;;;;;;;;;;19.70;99.90;;;;;;5154039;27;19907;-74
2022/08/02 02:54:54;;;;;;;;;;;19.70;99.90;;;;;;5154456;27;20247;-74
2022/08/02 02:57:20;;;;;;;;;;;19.70;99.90;;;;;;5135382;27;19952;-73
2022/08/02 02:59:46;;;;;;;;;;;19.70;99.90;;;;;;5154364;27;19999;-74
2022/08/02 03:02:12;;;;;;;;;;;19.70;99.90;;;;;;5153943;27;19964;-74
2022/08/02 03:04:39;;;;;;;;;;;19.70;99.90;;;;;;5154383;27;20343;-75
2022/08/02 03:07:05;;;;;;;;;;;19.70;99.90;;;;;;5154440;27;19907;-75
2022/08/02 03:09:31;;;;;;;;;;;19.70;99.90;;;;;;5135230;27;19992;-75
2022/08/02 03:11:57;;;;;;;;;;;19.60;99.90;;;;;;5154141;27;19913;-74
2022/08/02 03:14:22;;;;;;;;;;;19.60;99.90;;;;;;5153540;27;19993;-75
2022/08/02 03:16:52;;;;;;;;;;;19.60;99.90;;;;;;5154390;27;19907;-75
2022/08/02 03:19:18;;;;;;;;;;;19.70;99.90;;;;;;5153629;27;20001;-75
2022/08/02 03:21:45;;;;;;;;;;;19.70;99.90;;;;;;5154324;27;19903;-75
2022/08/02 03:24:11;;;;;;;;;;;19.70;99.90;;;;;;5156439;27;19921;-75
2022/08/02 03:26:36;;;;;;;;;;;19.60;99.90;;;;;;5158052;27;19907;-75
2022/08/02 03:29:02;;;;;;;;;;;19.70;99.90;;;;;;5158053;27;20370;-74
2022/08/02 03:31:28;;;;;;;;;;;19.70;99.90;;;;;;5157491;27;20343;-74
2022/08/02 03:33:57;;;;;;;;;;;19.70;99.90;;;;;;5157872;27;19995;-75
2022/08/02 03:36:24;;;;;;;;;;;19.70;99.90;;;;;;5138988;27;19903;-75
2022/08/02 03:38:50;;;;;;;;;;;19.70;99.90;;;;;;5158309;27;19917;-75
2022/08/02 03:41:17;;;;;;;;;;;19.80;99.90;;;;;;5156847;27;19950;-75
2022/08/02 03:43:46;;;;;;;;;;;19.80;99.90;;;;;;5157788;27;19908;-74
2022/08/02 03:46:13;;;;;;;;;;;19.80;99.90;;;;;;5138998;27;19919;-75
2022/08/02 03:48:40;;;;;;;;;;;19.80;99.90;;;;;;5158215;27;20358;-75
2022/08/02 03:51:06;;;;;;;;;;;19.80;99.90;;;;;;5157707;27;19903;-75
2022/08/02 03:53:32;;;;;;;;;;;19.80;99.90;;;;;;5157157;27;20460;-75
2022/08/02 03:55:58;;;;;;;;;;;19.80;99.90;;;;;;5157454;27;19903;-75
2022/08/02 03:58:24;;;;;;;;;;;19.80;99.90;;;;;;5156709;27;19947;-73
2022/08/02 04:00:51;;;;;;;;;;;19.80;99.90;;;;;;5157353;27;19907;-73
2022/08/02 04:03:16;;;;;;;;;;;19.80;99.90;;;;;;5156915;27;19953;-74
2022/08/02 04:05:42;;;;;;;;;;;19.70;99.90;;;;;;5138842;27;19943;-74
2022/08/02 04:08:07;;;;;;;;;;;19.70;99.90;;;;;;5138806;27;19928;-74
2022/08/02 04:11:29;;;;;;;;;;;19.70;99.90;;;;;;5156840;27;19918;-73
2022/08/02 04:13:20;;;;;;;;;;;19.70;99.90;;;;;;5156063;27;20330;-74
2022/08/02 04:15:46;;;;;;;;;;;19.70;99.90;;;;;;5156912;27;19961;-74
2022/08/02 04:18:12;;;;;;;;;;;19.70;99.90;;;;;;5156753;27;19903;-74
2022/08/02 04:20:38;;;;;;;;;;;19.70;99.90;;;;;;5156391;27;19903;-74
2022/08/02 04:23:05;;;;;;;;;;;19.60;99.90;;;;;;5156946;27;19910;-74
2022/08/02 04:25:31;;;;;;;;;;;19.60;99.90;;;;;;5137916;27;19952;-74
2022/08/02 04:27:58;;;;;;;;;;;19.60;99.90;;;;;;5156943;27;19950;-74
2022/08/02 04:30:24;;;;;;;;;;;19.60;99.90;;;;;;5155960;27;19903;-74
2022/08/02 04:32:50;;;;;;;;;;;19.50;99.90;;;;;;5156933;27;19903;-74
2022/08/02 04:35:15;;;;;;;;;;;19.50;99.90;;;;;;5156397;27;19994;-74
2022/08/02 04:37:41;;;;;;;;;;;19.50;99.90;;;;;;5156517;27;19903;-74
2022/08/02 04:40:10;;;;;;;;;;;19.50;99.90;;;;;;5156407;27;19919;-74
2022/08/02 04:42:36;;;;;;;;;;;19.50;99.90;;;;;;5156040;27;19943;-74
2022/08/02 04:45:02;;;;;;;;;;;19.50;99.90;;;;;;5156577;27;19957;-74
2022/08/02 04:47:29;;;;;;;;;;;19.50;99.90;;;;;;5137454;27;19907;-74
2022/08/02 04:49:54;;;;;;;;;;;19.50;99.90;;;;;;5156609;27;19947;-74
2022/08/02 04:52:20;;;;;;;;;;;19.50;99.90;;;;;;5155426;27;20265;-74
2022/08/02 04:54:45;;;;;;;;;;;19.50;99.90;;;;;;5137722;27;19910;-74
2022/08/02 04:59:55;;;;;;;;;;;19.50;99.90;;;;;;5156532;27;20351;-74
2022/08/02 05:02:21;;;;;;;;;;;19.50;99.90;;;;;;5155541;27;19903;-74
2022/08/02 05:04:46;;;;;;;;;;;19.50;99.90;;;;;;5156090;27;19911;-74
2022/08/02 05:07:12;;;;;;;;;;;19.50;99.90;;;;;;5156093;27;19930;-74
2022/08/02 05:09:37;;;;;;;;;;;19.50;99.90;;;;;;5155614;27;19902;-74
2022/08/02 05:12:03;;;;;;;;;;;19.60;99.90;;;;;;5156179;27;19903;-74
2022/08/02 05:14:29;;;;;;;;;;;19.50;99.90;;;;;;5155663;27;19947;-74
2022/08/02 05:16:54;;;;;;;;;;;19.60;99.90;;;;;;5156053;27;19903;-74
2022/08/02 05:19:20;;;;;;;;;;;19.60;99.90;;;;;;5136969;27;20363;-73
2022/08/02 05:21:45;;;;;;;;;;;19.60;99.90;;;;;;5155880;27;20255;-74
2022/08/02 05:24:11;;;;;;;;;;;19.60;99.90;;;;;;5137147;27;20245;-74
2022/08/02 05:26:36;;;;;;;;;;;19.60;99.90;;;;;;5136620;27;20018;-75
2022/08/02 05:29:03;;;;;;;;;;;19.50;99.90;;;;;;5155869;27;19903;-74
2022/08/02 05:31:29;;;;;;;;;;;19.50;99.90;;;;;;5136400;27;20296;-74
2022/08/02 05:33:55;;;;;;;;;;;19.50;99.90;;;;;;5155849;27;19937;-74
2022/08/02 05:36:20;;;;;;;;;;;19.50;99.90;;;;;;5154886;27;19903;-74
2022/08/02 05:38:46;;;;;;;;;;;19.40;99.90;;;;;;5155522;27;19960;-75
2022/08/02 05:41:11;;;;;;;;;;;19.40;99.90;;;;;;5154969;27;19915;-75
2022/08/02 05:43:37;;;;;;;;;;;19.40;99.90;;;;;;5154587;27;19956;-75
2022/08/02 05:46:02;;;;;;;;;;;19.30;99.90;;;;;;5154905;27;20347;-76
2022/08/02 05:48:28;;;;;;;;;;;19.30;99.90;;;;;;5154813;27;20343;-75
2022/08/02 05:50:54;;;;;;;;;;;19.30;99.90;;;;;;5136917;27;20339;-75
2022/08/02 05:53:26;;;;;;;;;;;19.20;99.90;;;;;;5155103;27;20319;-76
2022/08/02 05:55:56;;;;;;;;;;;19.20;99.90;;;;;;5154890;27;20348;-75
2022/08/02 05:58:42;;;;;;;;;;;19.20;99.90;;;;;;5136150;27;19903;-75
2022/08/02 06:01:10;;;;;;;;;;;19.20;99.90;;;;;;5153930;27;19914;-75
2022/08/02 06:03:38;;;;;;;;;;;19.20;99.90;;;;;;5154211;27;20366;-76
2022/08/02 06:06:04;;;;;;;;;;;19.20;99.90;;;;;;5155095;27;19907;-78
2022/08/02 06:08:32;;;;;;;;;;;19.20;99.90;;;;;;5154157;27;20228;-78
2022/08/02 06:11:00;;;;;;;;;;;19.20;99.90;;;;;;5155158;27;19968;-77
2022/08/02 06:13:27;;;;;;;;;;;19.20;99.90;;;;;;5154185;27;19910;-78
2022/08/02 06:15:58;;;;;;;;;;;19.20;99.90;;;;;;5154716;27;19952;-75
2022/08/02 06:18:25;;;;;;;;;;;19.20;99.90;;;;;;5154279;27;20361;-76
2022/08/02 06:20:51;;;;;;;;;;;19.20;99.90;;;;;;5136291;27;19903;-75
2022/08/02 06:23:16;;;;;;;;;;;19.20;99.90;;;;;;5154782;27;19915;-75
2022/08/02 06:25:45;;;;;;;;;;;19.20;99.90;;;;;;5154142;27;19976;-75
2022/08/02 06:28:12;;;;;;;;;;;19.20;99.90;;;;;;5154762;27;19928;-75
2022/08/02 06:30:38;;;;;;;;;;;19.20;99.90;;;;;;5154005;27;19903;-75
2022/08/02 06:33:03;;;;;;;;;;;19.20;99.90;;;;;;5154475;27;19939;-75
2022/08/02 06:35:41;;;;;;;;;;;19.30;99.90;;;;;;5154505;27;19903;-75
2022/08/02 06:38:08;;;;;;;;;;;19.30;99.90;;;;;;5154397;27;20332;-74
2022/08/02 06:40:40;;;;;;;;;;;19.30;99.90;;;;;;5154125;27;19915;-74
2022/08/02 06:43:10;;;;;;;;;;;19.30;99.90;;;;;;5154191;27;19911;-74
2022/08/02 06:45:36;;;;;;;;;;;19.40;99.90;;;;;;5153998;27;19907;-74
2022/08/02 06:48:02;;;;;;;;;;;19.40;99.90;;;;;;5154280;27;19959;-74
2022/08/02 06:50:28;;;;;;;;;;;19.40;99.90;;;;;;5153844;27;19903;-74
2022/08/02 06:52:54;;;;;;;;;;;19.50;99.90;;;;;;5154526;27;19989;-74
2022/08/02 06:55:19;;;;;;;;;;;19.50;99.90;;;;;;5145076;27;20006;-75
2022/08/02 06:57:45;;;;;;;;;;;19.60;99.90;;;;;;5144086;27;19911;-74
2022/08/02 07:00:11;;;;;;;;;;;19.60;99.90;;;;;;5156768;27;20255;-74
2022/08/02 07:02:38;;;;;;;;;;;19.70;99.90;;;;;;5157434;27;19907;-74
2022/08/02 07:05:04;;;;;;;;;;;19.70;99.90;;;;;;5158365;27;19914;-74
2022/08/02 07:07:30;;;;;;;;;;;19.80;99.90;;;;;;5157574;27;19960;-74
2022/08/02 07:09:56;;;;;;;;;;;19.70;99.90;;;;;;5157566;27;19903;-74
2022/08/02 07:12:22;;;;;;;;;;;19.80;99.90;;;;;;5158096;27;20328;-74
2022/08/02 07:14:47;;;;;;;;;;;19.80;99.90;;;;;;5157568;27;19903;-74
2022/08/02 07:17:13;;;;;;;;;;;19.80;99.90;;;;;;5157339;27;20352;-74
2022/08/02 07:19:38;;;;;;;;;;;20.00;99.90;;;;;;5157202;27;19903;-74
2022/08/02 07:22:04;;;;;;;;;;;20.00;99.90;;;;;;5153519;27;19993;-74
2022/08/02 07:24:29;;;;;;;;;;;20.00;99.90;;;;;;5143693;27;19907;-75
2022/08/02 07:26:56;;;;;;;;;;;20.00;99.90;;;;;;5157305;27;20203;-75
2022/08/02 07:29:21;;;;;;;;;;;20.10;99.90;;;;;;5157846;27;19903;-75
2022/08/02 07:31:47;;;;;;;;;;;20.10;99.90;;;;;;5157045;27;19907;-75
2022/08/02 07:34:12;;;;;;;;;;;20.20;99.90;;;;;;5157419;27;19998;-75
2022/08/02 07:36:38;;;;;;;;;;;20.30;99.90;;;;;;5157195;27;20247;-75
2022/08/02 07:39:03;;;;;;;;;;;20.30;99.90;;;;;;5139330;27;19909;-75
2022/08/02 07:41:29;;;;;;;;;;;20.30;99.90;;;;;;5156698;27;19923;-75
2022/08/02 07:43:55;;;;;;;;;;;20.30;99.90;;;;;;5157565;27;20311;-75
2022/08/02 07:46:20;;;;;;;;;;;20.30;99.90;;;;;;5157398;27;19907;-75
2022/08/02 07:48:47;;;;;;;;;;;20.30;99.90;;;;;;5136969;27;19907;-75
2022/08/02 07:51:13;;;;;;;;;;;20.30;99.90;;;;;;5157669;27;20328;-75
2022/08/02 07:53:38;;;;;;;;;;;20.30;99.90;;;;;;5157004;27;19956;-75
2022/08/02 07:56:04;;;;;;;;;;;20.20;99.90;;;;;;5157573;27;19906;-73
2022/08/02 07:58:30;;;;;;;;;;;20.20;99.90;;;;;;5156718;27;19903;-74
2022/08/02 08:00:55;;;;;;;;;;;20.20;99.90;;;;;;5157633;27;19970;-75
2022/08/02 08:03:21;;;;;;;;;;;20.20;99.90;;;;;;5157357;27;19903;-75
2022/08/02 08:05:46;;;;;;;;;;;20.20;99.90;;;;;;5137142;27;19925;-75
2022/08/02 08:08:12;;;;;;;;;;;20.20;99.90;;;;;;5136325;27;20359;-76
2022/08/02 08:10:39;;;;;;;;;;;20.10;99.90;;;;;;5135408;27;19927;-75
2022/08/02 08:13:04;;;;;;;;;;;20.20;99.90;;;;;;5153837;27;19910;-75
2022/08/02 08:15:30;;;;;;;;;;;20.20;99.90;;;;;;5156243;27;19903;-75
2022/08/02 08:17:55;;;;;;;;;;;20.20;99.90;;;;;;5157159;27;19998;-76
2022/08/02 08:20:21;;;;;;;;;;;20.20;99.90;;;;;;5156968;27;20244;-75
2022/08/02 08:22:47;;;;;;;;;;;20.20;99.90;;;;;;5156282;27;19954;-74
2022/08/02 08:25:13;;;;;;;;;;;20.20;99.90;;;;;;5156750;27;19950;-75
2022/08/02 08:27:46;;;;;;;;;;;20.20;99.90;;;;;;5155927;27;20404;-75
2022/08/02 08:30:11;;;;;;;;;;;20.20;99.90;;;;;;5156348;27;19910;-75
2022/08/02 08:32:37;;;;;;;;;;;20.20;99.90;;;;;;5156181;27;19915;-75
2022/08/02 08:35:05;;;;;;;;;;;20.10;99.90;;;;;;5156234;27;19946;-73
2022/08/02 08:37:34;;;;;;;;;;;20.10;99.90;;;;;;5155625;27;19965;-74
2022/08/02 08:40:00;;;;;;;;;;;20.10;99.90;;;;;;5156157;27;19960;-73
2022/08/02 08:42:26;;;;;;;;;;;20.10;99.90;;;;;;5135988;27;19904;-73
2022/08/02 08:44:53;;;;;;;;;;;20.10;99.90;;;;;;5135096;27;19954;-74
2022/08/02 08:47:19;;;;;;;;;;;20.10;99.90;;;;;;5135630;27;19908;-75
2022/08/02 08:49:46;;;;;;;;;;;20.00;99.90;;;;;;5133832;27;19908;-75
2022/08/02 08:52:12;;;;;;;;;;;20.10;99.90;;;;;;5114639;27;19950;-75
2022/08/02 08:54:39;;;;;;;;;;;20.20;99.90;;;;;;5133065;27;19907;-75
2022/08/02 08:57:05;;;;;;;;;;;20.30;99.90;;;;;;5132692;27;21298;-74
2022/08/02 08:59:30;;;;;;;;;;;20.30;99.90;;;;;;5132574;27;19907;-74
2022/08/02 09:01:57;;;;;;;;;;;20.50;99.90;;;;;;5117735;27;19932;-74
2022/08/02 09:04:22;;;;;;;;;;;20.60;99.90;;;;;;5136625;27;19949;-75
2022/08/02 09:06:48;;;;;;;;;;;20.60;99.90;;;;;;5146210;27;19914;-74
2022/08/02 09:09:13;;;;;;;;;;;20.70;99.90;;;;;;5132812;27;19914;-75
2022/08/02 09:11:39;;;;;;;;;;;20.70;99.90;;;;;;5141333;27;20373;-75
2022/08/02 09:14:05;;;;;;;;;;;20.70;99.90;;;;;;5136907;27;19914;-75
2022/08/02 09:16:41;;;;;;;;;;;20.70;99.90;;;;;;5137145;27;20287;-76
2022/08/02 09:19:16;;;;;;;;;;;20.80;99.90;;;;;;5126953;27;20283;-75
2022/08/02 09:21:42;;;;;;;;;;;20.90;99.90;;;;;;5141934;27;20855;-75
2022/08/02 09:24:14;;;;;;;;;;;21.10;99.90;;;;;;5132628;27;19958;-75
2022/08/02 09:26:40;;;;;;;;;;;21.20;99.90;;;;;;5140309;27;19911;-75
2022/08/02 09:29:07;;;;;;;;;;;21.30;99.90;;;;;;5132783;27;19913;-73
2022/08/02 09:31:33;;;;;;;;;;;21.40;99.90;;;;;;5132039;27;19951;-74
2022/08/02 09:33:59;;;;;;;;;;;21.40;99.90;;;;;;5144295;27;19950;-74
2022/08/02 09:36:26;;;;;;;;;;;21.50;99.90;;;;;;5151921;27;20371;-75
2022/08/02 09:38:54;;;;;;;;;;;21.50;99.90;;;;;;5134939;27;20022;-75
2022/08/02 09:41:29;;;;;;;;;;;21.60;99.90;;;;;;5150629;27;20003;-75
2022/08/02 09:43:55;;;;;;;;;;;21.60;99.90;;;;;;5131714;27;19911;-75
2022/08/02 09:46:22;;;;;;;;;;;21.80;99.90;;;;;;5151895;27;19930;-73
2022/08/02 09:48:52;;;;;;;;;;;21.90;99.90;;;;;;5151444;27;19911;-74
2022/08/02 09:51:19;;;;;;;;;;;22.00;99.90;;;;;;5137998;27;19969;-74
2022/08/02 09:53:45;;;;;;;;;;;22.10;99.90;;;;;;5150868;27;19914;-74
2022/08/02 09:56:11;;;;;;;;;;;22.20;99.90;;;;;;5146852;27;20356;-74
2022/08/02 09:58:37;;;;;;;;;;;22.20;99.90;;;;;;5131427;27;19963;-74
2022/08/02 10:01:02;;;;;;;;;;;22.20;99.90;;;;;;5132414;27;20259;-74
2022/08/02 10:03:28;;;;;;;;;;;22.10;99.90;;;;;;5151408;27;19907;-74
2022/08/02 10:05:57;;;;;;;;;;;22.10;99.90;;;;;;5141292;27;19919;-75
2022/08/02 10:08:23;;;;;;;;;;;22.10;99.90;;;;;;5131345;27;19944;-75
2022/08/02 10:10:59;;;;;;;;;;;22.10;99.90;;;;;;5113472;27;19926;-75
2022/08/02 10:13:31;;;;;;;;;;;22.10;99.90;;;;;;5132012;27;19923;-75
2022/08/02 10:15:58;;;;;;;;;;;22.10;99.90;;;;;;5150408;27;20360;-74
2022/08/02 10:18:23;;;;;;;;;;;22.00;99.90;;;;;;5132589;27;19911;-74
2022/08/02 10:20:50;;;;;;;;;;;21.90;99.90;;;;;;5150615;27;19932;-74
2022/08/02 10:23:16;;;;;;;;;;;21.90;99.90;;;;;;5151173;27;21361;-75
2022/08/02 10:25:43;;;;;;;;;;;21.90;99.90;;;;;;5141336;27;19912;-74
2022/08/02 10:28:09;;;;;;;;;;;21.90;99.90;;;;;;5130868;27;19986;-74
2022/08/02 10:30:39;;;;;;;;;;;21.80;99.90;;;;;;5130776;27;20011;-74
2022/08/02 10:33:06;;;;;;;;;;;21.80;99.90;;;;;;5130381;27;19948;-74
2022/08/02 10:35:32;;;;;;;;;;;21.80;99.90;;;;;;5145513;27;19953;-74
2022/08/02 10:38:02;;;;;;;;;;;21.70;99.90;;;;;;5150423;27;19907;-74
2022/08/02 10:40:54;;;;;;;;;;;21.70;99.90;;;;;;5151083;27;19987;-74
2022/08/02 10:43:31;;;;;;;;;;;21.70;99.90;;;;;;5115170;27;19950;-74
2022/08/02 10:46:15;;;;;;;;;;;21.60;99.90;;;;;;5150274;27;19975;-74
2022/08/02 10:49:00;;;;;;;;;;;21.70;99.90;;;;;;5133787;27;19961;-75
2022/08/02 10:51:45;;;;;;;;;;;21.70;99.90;;;;;;5146166;27;19914;-75
2022/08/02 10:54:16;;;;;;;;;;;21.60;99.90;;;;;;5129720;27;19915;-75
2022/08/02 10:56:44;;;;;;;;;;;21.60;99.90;;;;;;5130590;27;19911;-75
2022/08/02 10:59:29;;;;;;;;;;;21.70;99.90;;;;;;5130825;27;20368;-75
2022/08/02 11:02:01;;;;;;;;;;;21.70;99.90;;;;;;5138860;27;20003;-75
2022/08/02 11:04:30;;;;;;;;;;;21.70;99.90;;;;;;5130938;27;19915;-75
2022/08/02 11:07:25;;;;;;;;;;;21.80;99.90;;;;;;5130188;27;19915;-74
2022/08/02 11:09:59;;;;;;;;;;;21.90;99.90;;;;;;5111406;27;19981;-74
2022/08/02 11:12:26;;;;;;;;;;;21.80;99.90;;;;;;5130871;27;19958;-74
2022/08/02 11:14:59;;;;;;;;;;;21.80;99.90;;;;;;5140990;27;19995;-74
2022/08/02 11:17:27;;;;;;;;;;;21.80;99.90;;;;;;5137160;27;19914;-74
2022/08/02 11:20:11;;;;;;;;;;;21.80;99.90;;;;;;5130822;27;19907;-75
2022/08/02 11:22:41;;;;;;;;;;;21.90;99.90;;;;;;5150564;27;19907;-74
2022/08/02 11:25:22;;;;;;;;;;;21.90;99.90;;;;;;5151373;27;19918;-76
2022/08/02 11:27:52;;;;;;;;;;;22.00;99.90;;;;;;5132692;27;19915;-76
2022/08/02 11:30:18;;;;;;;;;;;22.20;99.90;;;;;;5139907;27;19908;-76
2022/08/02 11:32:44;;;;;;;;;;;22.30;99.90;;;;;;5111954;27;20352;-75
2022/08/02 11:35:09;;;;;;;;;;;22.40;99.90;;;;;;5130791;27;19907;-75
2022/08/02 11:37:36;;;;;;;;;;;22.40;99.90;;;;;;5130843;27;19914;-74
2022/08/02 11:40:03;;;;;;;;;;;22.50;99.90;;;;;;5111983;27;19995;-74
2022/08/02 11:42:32;;;;;;;;;;;22.50;99.90;;;;;;5130634;27;19920;-74
2022/08/02 11:44:58;;;;;;;;;;;22.50;99.90;;;;;;5124528;27;19919;-74
2022/08/02 11:47:24;;;;;;;;;;;22.50;99.90;;;;;;5155140;27;19918;-75
2022/08/02 11:49:49;;;;;;;;;;;22.60;99.90;;;;;;5154349;27;19914;-75
2022/08/02 11:52:15;;;;;;;;;;;22.60;99.90;;;;;;5154268;27;19911;-75
2022/08/02 11:54:41;;;;;;;;;;;22.70;99.90;;;;;;5145449;27;19911;-76
2022/08/02 11:57:14;;;;;;;;;;;22.70;99.90;;;;;;5134270;27;20353;-75
2022/08/02 11:59:41;;;;;;;;;;;22.70;99.90;;;;;;5154000;27;19911;-75
2022/08/02 12:02:07;;;;;;;;;;;22.70;99.90;;;;;;5127010;27;20237;-74
2022/08/02 12:04:32;;;;;;;;;;;22.60;99.90;;;;;;5146623;27;19911;-75
2022/08/02 12:06:59;;;;;;;;;;;22.60;99.90;;;;;;5117643;27;19973;-75
2022/08/02 12:09:26;;;;;;;;;;;22.50;99.90;;;;;;5153700;27;20013;-75
2022/08/02 12:11:51;;;;;;;;;;;22.60;99.90;;;;;;5153340;27;20267;-76
2022/08/02 12:14:17;;;;;;;;;;;22.70;99.90;;;;;;5140831;27;19911;-76
2022/08/02 12:19:27;;;;;;;;;;;23.00;99.90;;;;;;5134016;27;19929;-75
2022/08/02 12:22:06;;;;;;;;;;;23.30;99.90;;;;;;5134347;27;19995;-74
2022/08/02 12:24:32;;;;;;;;;;;23.50;99.90;;;;;;5138375;27;19918;-76
2022/08/02 12:26:57;;;;;;;;;;;23.60;99.90;;;;;;5133026;27;19915;-75
2022/08/02 12:29:29;;;;;;;;;;;23.60;99.90;;;;;;5133043;27;19911;-75
2022/08/02 12:31:54;;;;;;;;;;;23.80;99.90;;;;;;5153105;27;19952;-75
2022/08/02 12:34:21;;;;;;;;;;;23.90;99.90;;;;;;5134853;27;19907;-75
2022/08/02 12:36:57;;;;;;;;;;;23.70;99.90;;;;;;5152542;27;19911;-75
2022/08/02 12:39:32;;;;;;;;;;;23.80;99.90;;;;;;5153104;27;19915;-76
2022/08/02 12:41:59;;;;;;;;;;;23.80;99.90;;;;;;5149669;27;20704;-76
2022/08/02 12:44:25;;;;;;;;;;;23.80;99.90;;;;;;5137112;27;19919;-77
2022/08/02 12:46:57;;;;;;;;;;;23.70;99.90;;;;;;5132067;27;19911;-76
2022/08/02 12:49:23;;;;;;;;;;;23.70;99.90;;;;;;5152449;27;19910;-76
2022/08/02 12:51:48;;;;;;;;;;;23.60;99.90;;;;;;5152296;27;19914;-76
2022/08/02 12:54:24;;;;;;;;;;;23.60;99.90;;;;;;5152798;27;19907;-76
2022/08/02 12:56:50;;;;;;;;;;;23.60;99.90;;;;;;5131861;27;19915;-76
2022/08/02 12:59:31;;;;;;;;;;;23.50;99.90;;;;;;5113993;27;19907;-75
2022/08/02 13:02:00;;;;;;;;;;;23.40;99.90;;;;;;5132159;27;19959;-76
2022/08/02 13:04:25;;;;;;;;;;;23.40;99.90;;;;;;5132516;27;19924;-76
2022/08/02 13:06:51;;;;;;;;;;;23.40;99.90;;;;;;5131382;27;19964;-76
2022/08/02 13:09:17;;;;;;;;;;;23.30;99.90;;;;;;5132259;27;19925;-76
2022/08/02 13:11:42;;;;;;;;;;;23.10;99.90;;;;;;5139375;27;19907;-75
2022/08/02 13:14:08;;;;;;;;;;;23.10;99.90;;;;;;5152658;27;19914;-74
2022/08/02 13:16:33;;;;;;;;;;;23.10;99.90;;;;;;5145337;27;19907;-75
2022/08/02 13:18:59;;;;;;;;;;;23.30;99.90;;;;;;5134087;27;19918;-74
2022/08/02 13:21:25;;;;;;;;;;;23.50;99.90;;;;;;5151629;27;19911;-74
2022/08/02 13:23:50;;;;;;;;;;;23.70;99.90;;;;;;5151696;27;19997;-74
2022/08/02 13:26:16;;;;;;;;;;;24.00;99.90;;;;;;5151931;27;19967;-75
2022/08/02 13:28:41;;;;;;;;;;;24.10;99.90;;;;;;5132554;27;19916;-75
2022/08/02 13:31:07;;;;;;;;;;;24.10;99.90;;;;;;5134464;27;20352;-75
2022/08/02 13:33:33;;;;;;;;;;;24.30;99.90;;;;;;5139564;27;19907;-75
2022/08/02 13:35:58;;;;;;;;;;;24.40;99.90;;;;;;5151095;27;19907;-74
2022/08/02 13:38:24;;;;;;;;;;;24.30;99.90;;;;;;5151898;27;19959;-75
2022/08/02 13:41:08;;;;;;;;;;;24.40;99.90;;;;;;5151621;27;19915;-74
2022/08/02 13:43:34;;;;;;;;;;;24.30;99.90;;;;;;5151355;27;20359;-74
2022/08/02 13:46:00;;;;;;;;;;;24.30;99.90;;;;;;5151261;27;19923;-75
2022/08/02 13:48:25;;;;;;;;;;;24.20;99.90;;;;;;5151542;27;19930;-75
2022/08/02 13:50:51;;;;;;;;;;;24.20;99.90;;;;;;5149885;27;20255;-75
2022/08/02 13:53:17;;;;;;;;;;;24.10;99.90;;;;;;5125920;27;19959;-75
2022/08/02 13:55:42;;;;;;;;;;;24.00;99.90;;;;;;5112564;27;19919;-75
2022/08/02 13:58:08;;;;;;;;;;;24.00;99.90;;;;;;5131095;27;20376;-75
2022/08/02 14:00:34;;;;;;;;;;;24.00;99.90;;;;;;5139309;27;19908;-75
2022/08/02 14:02:59;;;;;;;;;;;24.00;99.90;;;;;;5130846;27;19918;-75
2022/08/02 14:05:29;;;;;;;;;;;24.10;99.90;;;;;;5131168;27;20635;-74
2022/08/02 14:07:55;;;;;;;;;;;24.20;99.90;;;;;;5111970;27;19912;-75
2022/08/02 14:10:21;;;;;;;;;;;24.20;99.90;;;;;;5150317;27;20252;-74
2022/08/02 14:12:46;;;;;;;;;;;24.30;99.90;;;;;;5150258;27;19913;-74
2022/08/02 14:15:12;;;;;;;;;;;24.30;99.90;;;;;;5151168;27;19907;-74
2022/08/02 14:17:37;;;;;;;;;;;24.30;99.90;;;;;;5145421;27;20371;-75
2022/08/02 14:20:03;;;;;;;;;;;24.40;99.90;;;;;;5129548;27;19956;-75
2022/08/02 14:22:29;;;;;;;;;;;24.60;99.90;;;;;;5130758;27;19997;-75